Time;durP1;ratioP1;P1;durP2;ratioP2;P2;SDS_P1;SDS_P2;PMS_P1;PMS_P2;Temp;Humidity;BMP_temperature;BMP_pressure;BME280_temperature;BME280_humidity;BME280_pressure;Samples;Min_cycle;Max_cycle;Signal;HPM_P1;HPM_P2
2021/10/11 00:03:19;;;;;;;9.98;6.97;;;17.80;74.80;;;;;;10509202;28;20046;-55
2021/10/11 00:08:20;;;;;;;8.95;7.07;;;17.80;74.80;;;;;;10509845;28;20451;-55
2021/10/11 00:13:21;;;;;;;9.38;6.35;;;17.80;74.80;;;;;;10510398;28;20497;-53
2021/10/11 00:18:22;;;;;;;8.23;6.75;;;17.80;74.80;;;;;;10510336;28;20036;-55
2021/10/11 00:23:22;;;;;;;8.85;6.88;;;17.80;74.70;;;;;;10510148;28;20522;-55
2021/10/11 00:28:23;;;;;;;6.72;5.97;;;17.80;74.80;;;;;;10510042;28;20079;-54
2021/10/11 00:33:24;;;;;;;6.55;5.53;;;17.80;74.70;;;;;;10495409;28;20107;-54
2021/10/11 00:38:24;;;;;;;7.03;5.82;;;17.80;74.70;;;;;;10509586;28;20041;-54
2021/10/11 00:43:25;;;;;;;8.27;6.18;;;17.80;74.70;;;;;;10509681;28;20445;-55
2021/10/11 00:48:26;;;;;;;8.35;5.85;;;17.80;74.70;;;;;;10509764;28;20028;-55
2021/10/11 00:53:27;;;;;;;7.40;5.68;;;17.80;74.60;;;;;;10508220;28;20056;-53
2021/10/11 00:58:29;;;;;;;9.65;6.10;;;17.80;74.70;;;;;;10508142;28;20052;-55
2021/10/11 01:03:29;;;;;;;9.43;6.00;;;17.80;74.50;;;;;;10502437;28;20232;-55
2021/10/11 01:08:30;;;;;;;7.20;6.07;;;17.80;74.60;;;;;;10501256;28;20142;-54
2021/10/11 01:13:31;;;;;;;6.93;5.38;;;17.70;74.50;;;;;;10501465;28;20025;-55
2021/10/11 01:18:32;;;;;;;6.57;4.95;;;17.70;74.50;;;;;;10502058;28;20035;-55
2021/10/11 01:23:32;;;;;;;6.03;5.00;;;17.70;74.50;;;;;;10502098;28;20104;-56
2021/10/11 01:28:33;;;;;;;5.70;4.68;;;17.70;74.50;;;;;;10502258;28;20029;-54
2021/10/11 01:33:34;;;;;;;6.55;4.88;;;17.70;74.40;;;;;;10501407;28;20210;-55
2021/10/11 01:38:35;;;;;;;6.38;5.13;;;17.70;74.50;;;;;;10499864;28;20374;-54
2021/10/11 01:43:35;;;;;;;6.97;4.88;;;17.70;74.50;;;;;;10500896;28;20464;-55
2021/10/11 01:48:36;;;;;;;8.38;5.40;;;17.70;74.40;;;;;;10506574;28;20055;-54
2021/10/11 01:53:37;;;;;;;5.80;4.22;;;17.70;74.40;;;;;;10507506;28;20052;-55
2021/10/11 01:58:38;;;;;;;5.13;4.63;;;17.70;74.40;;;;;;10500635;28;20040;-55
2021/10/11 02:03:38;;;;;;;5.38;3.72;;;17.70;74.40;;;;;;10500065;28;20059;-55
2021/10/11 02:08:39;;;;;;;6.05;4.57;;;17.70;74.40;;;;;;10500083;28;20036;-54
2021/10/11 02:13:40;;;;;;;6.38;4.68;;;17.70;74.40;;;;;;10499620;28;20124;-54
2021/10/11 02:18:41;;;;;;;6.40;4.57;;;17.70;74.40;;;;;;10500054;28;20353;-55
2021/10/11 02:23:41;;;;;;;4.70;3.67;;;17.70;74.30;;;;;;10499714;28;20035;-55
2021/10/11 02:28:42;;;;;;;6.47;4.50;;;17.70;74.30;;;;;;10499246;28;20389;-55
2021/10/11 02:33:44;;;;;;;5.82;3.75;;;17.70;74.30;;;;;;10498032;28;20124;-55
2021/10/11 02:38:44;;;;;;;4.80;4.07;;;17.70;74.30;;;;;;10498758;28;20070;-55
2021/10/11 02:43:45;;;;;;;5.07;3.75;;;17.70;74.30;;;;;;10498800;28;20518;-55
2021/10/11 02:48:46;;;;;;;4.65;3.22;;;17.70;74.30;;;;;;10505574;28;20529;-55
2021/10/11 02:53:49;;;;;;;6.22;4.45;;;17.60;74.20;;;;;;10505235;28;20020;-54
2021/10/11 02:58:49;;;;;;;4.60;3.50;;;17.60;74.10;;;;;;10498524;28;20028;-54
2021/10/11 03:03:50;;;;;;;7.10;3.05;;;17.60;74.10;;;;;;10497696;28;20039;-55
2021/10/11 03:08:51;;;;;;;5.70;3.35;;;17.60;74.10;;;;;;10497925;28;20111;-54
2021/10/11 03:13:51;;;;;;;4.63;3.25;;;17.60;74.10;;;;;;10497526;28;20067;-54
2021/10/11 03:18:53;;;;;;;4.28;3.25;;;17.60;74.10;;;;;;10497661;28;20129;-55
2021/10/11 03:23:53;;;;;;;5.10;3.45;;;17.60;74.10;;;;;;10497057;28;20103;-54
2021/10/11 03:28:54;;;;;;;5.20;3.20;;;17.60;74.00;;;;;;10497499;28;20031;-54
2021/10/11 03:33:55;;;;;;;4.20;3.15;;;17.60;74.00;;;;;;10490904;28;20477;-55
2021/10/11 03:38:55;;;;;;;3.92;2.78;;;17.60;73.90;;;;;;10497317;28;20123;-55
2021/10/11 03:43:56;;;;;;;4.07;2.33;;;17.50;73.90;;;;;;10497157;28;20108;-55
2021/10/11 03:48:57;;;;;;;3.08;2.38;;;17.50;73.90;;;;;;10496819;28;20056;-55
2021/10/11 03:53:58;;;;;;;5.78;3.15;;;17.50;73.90;;;;;;10495776;28;20465;-55
2021/10/11 03:58:58;;;;;;;4.07;2.63;;;17.60;73.90;;;;;;10496762;28;20393;-55
2021/10/11 04:03:59;;;;;;;4.60;3.10;;;17.50;73.80;;;;;;10496236;28;20103;-55
2021/10/11 04:09:00;;;;;;;4.55;3.05;;;17.50;73.80;;;;;;10496385;28;20068;-54
2021/10/11 04:14:01;;;;;;;3.70;2.78;;;17.50;73.70;;;;;;10493415;28;20023;-55
2021/10/11 04:19:02;;;;;;;4.45;2.70;;;17.50;73.70;;;;;;10494716;28;20377;-55
2021/10/11 04:24:03;;;;;;;3.83;2.55;;;17.50;73.70;;;;;;10495469;28;20035;-53
2021/10/11 04:29:04;;;;;;;3.17;2.20;;;17.50;73.70;;;;;;10495612;28;20035;-53
2021/10/11 04:34:04;;;;;;;3.47;2.30;;;17.50;73.60;;;;;;10495110;28;20108;-55
2021/10/11 04:39:06;;;;;;;5.88;2.65;;;17.50;73.60;;;;;;10502951;28;20116;-52
2021/10/11 04:44:06;;;;;;;3.72;2.40;;;17.50;73.60;;;;;;10498717;28;20056;-46
2021/10/11 04:49:07;;;;;;;4.32;2.25;;;17.80;72.90;;;;;;10495245;28;20442;-48
2021/10/11 04:54:09;;;;;;;6.75;2.78;;;18.10;72.30;;;;;;10502176;28;20137;-52
2021/10/11 04:59:09;;;;;;;3.75;1.88;;;18.30;72.60;;;;;;10502456;28;20047;-52
2021/10/11 05:04:10;;;;;;;7.03;2.20;;;18.50;72.30;;;;;;10501679;28;20028;-47
2021/10/11 05:09:11;;;;;;;11.43;2.85;;;18.60;71.60;;;;;;10501411;28;20020;-44
2021/10/11 05:14:12;;;;;;;11.43;2.33;;;18.80;71.30;;;;;;10502147;28;20058;-43
2021/10/11 05:19:23;;;;;;;4.53;2.30;;;18.70;71.50;;;;;;10497775;28;20031;-43
2021/10/11 05:24:24;;;;;;;9.25;2.55;;;18.60;72.00;;;;;;10502079;28;20119;-45
2021/10/11 05:29:25;;;;;;;8.23;2.70;;;18.60;72.40;;;;;;10502038;28;20522;-45
2021/10/11 05:34:27;;;;;;;10.02;3.05;;;18.50;72.90;;;;;;10501466;28;20102;-46
2021/10/11 05:39:27;;;;;;;14.13;2.80;;;18.50;72.80;;;;;;10500194;28;20028;-45
2021/10/11 05:44:28;;;;;;;17.35;3.33;;;18.40;73.30;;;;;;10500690;28;20044;-43
2021/10/11 05:49:29;;;;;;;15.30;2.95;;;18.40;74.00;;;;;;10505553;28;20032;-44
2021/10/11 05:54:29;;;;;;;10.30;2.40;;;18.40;74.00;;;;;;10498586;28;20055;-45
2021/10/11 05:59:30;;;;;;;23.38;3.35;;;18.40;73.80;;;;;;10483535;28;20112;-50
2021/10/11 06:04:31;;;;;;;13.50;3.33;;;18.40;73.80;;;;;;10501701;28;20120;-44
2021/10/11 06:09:32;;;;;;;27.52;4.88;;;18.40;73.90;;;;;;10499872;28;20036;-49
2021/10/11 06:14:32;;;;;;;22.17;4.20;;;18.30;73.70;;;;;;10492775;28;20039;-46
2021/10/11 06:19:33;;;;;;;16.05;2.85;;;18.20;74.00;;;;;;10498116;28;20163;-45
2021/10/11 06:24:34;;;;;;;25.45;3.40;;;18.20;74.00;;;;;;10490579;28;20055;-46
2021/10/11 06:29:34;;;;;;;9.23;3.10;;;18.20;74.00;;;;;;10498168;28;20082;-48
2021/10/11 06:34:35;;;;;;;13.57;2.85;;;18.10;74.10;;;;;;10498209;28;20049;-47
2021/10/11 06:39:36;;;;;;;9.45;2.47;;;18.00;74.10;;;;;;10496036;28;20032;-47
2021/10/11 06:44:36;;;;;;;8.73;2.85;;;18.00;74.10;;;;;;10494524;28;20119;-47
2021/10/11 06:49:37;;;;;;;11.45;3.13;;;18.00;74.00;;;;;;10500516;28;20036;-47
2021/10/11 06:54:38;;;;;;;9.15;2.50;;;18.00;74.00;;;;;;10496463;28;20425;-48
2021/10/11 06:59:38;;;;;;;9.07;2.25;;;17.90;73.90;;;;;;10494979;28;20237;-47
2021/10/11 07:04:39;;;;;;;6.47;2.53;;;17.90;74.00;;;;;;10494576;28;20318;-49
2021/10/11 07:09:40;;;;;;;10.52;2.47;;;17.90;74.10;;;;;;10519477;28;20044;-46
2021/10/11 07:14:40;;;;;;;9.48;3.50;;;17.90;74.10;;;;;;10517382;28;20123;-52
2021/10/11 07:19:45;;;;;;;8.30;2.80;;;17.80;74.00;;;;;;10504636;28;20060;-47
2021/10/11 07:24:47;;;;;;;11.15;2.53;;;17.80;74.00;;;;;;10505687;28;20028;-52
2021/10/11 07:29:48;;;;;;;11.15;2.45;;;17.90;74.40;;;;;;10519857;28;20047;-51
2021/10/11 07:34:49;;;;;;;7.70;2.80;;;17.90;74.40;;;;;;10500389;28;20047;-49
2021/10/11 07:39:49;;;;;;;10.20;2.35;;;18.00;74.40;;;;;;10505560;28;20114;-51
2021/10/11 07:44:50;;;;;;;12.80;2.88;;;18.00;74.40;;;;;;10500314;28;20056;-46
2021/10/11 07:49:51;;;;;;;8.07;3.05;;;18.00;74.60;;;;;;10502354;28;20107;-47
2021/10/11 07:54:51;;;;;;;11.65;2.88;;;18.00;74.50;;;;;;10516544;28;20082;-48
2021/10/11 07:59:52;;;;;;;15.68;2.92;;;18.00;75.50;;;;;;10498504;28;20115;-47
2021/10/11 08:04:53;;;;;;;16.67;3.05;;;18.00;75.10;;;;;;10511015;28;20107;-49
2021/10/11 08:09:53;;;;;;;19.60;3.92;;;18.00;75.00;;;;;;10494933;28;20451;-52
2021/10/11 08:14:54;;;;;;;19.42;4.40;;;18.00;75.20;;;;;;10500045;28;20025;-46
2021/10/11 08:19:55;;;;;;;20.40;3.08;;;18.00;75.10;;;;;;10499361;28;20107;-52
2021/10/11 08:24:56;;;;;;;22.17;3.85;;;18.10;75.00;;;;;;10501363;28;20067;-49
2021/10/11 08:29:56;;;;;;;20.30;4.13;;;18.10;74.90;;;;;;10502664;28;20134;-50
2021/10/11 08:34:57;;;;;;;20.05;4.10;;;18.00;75.00;;;;;;10499811;28;20032;-48
2021/10/11 08:39:58;;;;;;;22.13;3.15;;;18.10;75.10;;;;;;10499808;28;20017;-48
2021/10/11 08:44:59;;;;;;;14.13;3.35;;;18.00;75.20;;;;;;10499873;28;20036;-51
2021/10/11 08:49:59;;;;;;;15.95;3.30;;;18.00;75.30;;;;;;10498837;28;20103;-49
2021/10/11 08:55:00;;;;;;;18.77;3.72;;;18.00;75.20;;;;;;10501635;28;20373;-52
2021/10/11 09:00:16;;;;;;;22.80;4.03;;;18.00;75.40;;;;;;10502256;28;20495;-49
2021/10/11 09:05:45;;;;;;;21.85;4.72;;;18.00;75.40;;;;;;10499128;28;20036;-50
2021/10/11 09:11:00;;;;;;;19.80;3.30;;;18.00;75.40;;;;;;10502553;28;20040;-48
2021/10/11 09:16:22;;;;;;;17.10;3.08;;;18.00;75.50;;;;;;10487979;28;20068;-48
2021/10/11 09:21:34;;;;;;;20.63;4.75;;;18.00;75.50;;;;;;10500487;28;20082;-47
2021/10/11 09:26:53;;;;;;;21.98;4.10;;;18.10;75.60;;;;;;10500549;28;20112;-48
2021/10/11 09:31:57;;;;;;;29.70;4.53;;;18.10;75.40;;;;;;10501705;28;20115;-48
2021/10/11 09:37:05;;;;;;;26.08;4.38;;;18.10;75.40;;;;;;10499050;28;20455;-50
2021/10/11 09:42:13;;;;;;;11.18;2.90;;;18.10;75.40;;;;;;10500680;28;20103;-53
2021/10/11 09:47:26;;;;;;;18.63;4.07;;;18.00;75.30;;;;;;10500972;28;20032;-53
2021/10/11 09:52:27;;;;;;;15.23;3.50;;;18.00;75.20;;;;;;10505378;28;20103;-48
2021/10/11 09:57:31;;;;;;;13.32;2.65;;;18.00;75.10;;;;;;10497936;28;20033;-50
2021/10/11 10:02:32;;;;;;;12.45;3.22;;;18.00;75.10;;;;;;10499729;28;20052;-50
2021/10/11 10:07:34;;;;;;;12.23;3.47;;;18.00;75.10;;;;;;10499829;28;20021;-47
2021/10/11 10:12:50;;;;;;;16.38;2.90;;;17.90;75.00;;;;;;10498626;28;20411;-51
2021/10/11 10:18:07;;;;;;;11.77;2.58;;;18.00;75.10;;;;;;10499537;28;20179;-46
2021/10/11 10:23:07;;;;;;;13.50;3.40;;;18.00;75.30;;;;;;10499331;28;20115;-51
2021/10/11 10:28:12;;;;;;;14.35;3.30;;;18.10;75.60;;;;;;10499447;28;20605;-55
2021/10/11 10:33:16;;;;;;;7.63;2.50;;;18.20;76.10;;;;;;10499179;28;20086;-53
2021/10/11 10:38:21;;;;;;;11.95;3.40;;;18.20;75.20;;;;;;10498800;28;20051;-51
2021/10/11 10:43:22;;;;;;;9.00;2.58;;;18.20;75.20;;;;;;10498589;28;20479;-53
2021/10/11 10:48:27;;;;;;;13.10;2.90;;;18.20;74.80;;;;;;10502157;28;20106;-54
2021/10/11 10:53:29;;;;;;;8.27;2.38;;;18.30;75.00;;;;;;10498852;28;20111;-54
2021/10/11 10:58:30;;;;;;;10.65;2.28;;;18.30;75.10;;;;;;10496855;28;20032;-54
2021/10/11 11:03:30;;;;;;;9.52;2.30;;;18.30;75.10;;;;;;10471450;28;20055;-54
2021/10/11 11:08:31;;;;;;;10.15;2.92;;;18.30;75.10;;;;;;10497672;28;20116;-55
2021/10/11 11:13:32;;;;;;;13.70;3.15;;;18.50;75.40;;;;;;10497485;28;20040;-55
2021/10/11 11:18:33;;;;;;;7.85;2.22;;;18.40;75.90;;;;;;10496014;28;20100;-53
2021/10/11 11:23:36;;;;;;;15.27;2.95;;;18.50;75.80;;;;;;10496629;28;20055;-52
2021/10/11 11:28:37;;;;;;;11.18;2.22;;;18.50;75.70;;;;;;10483719;28;20055;-52
2021/10/11 11:33:58;;;;;;;8.35;2.95;;;18.50;75.60;;;;;;10487830;28;20478;-52
2021/10/11 11:38:59;;;;;;;8.05;2.22;;;18.50;75.60;;;;;;10500371;28;20068;-51
2021/10/11 11:43:59;;;;;;;9.68;1.73;;;18.40;75.50;;;;;;10495777;28;20032;-51
2021/10/11 11:49:00;;;;;;;11.32;2.70;;;18.40;75.60;;;;;;10512733;28;20028;-53
2021/10/11 11:54:01;;;;;;;10.77;2.10;;;18.40;75.60;;;;;;10496512;28;20104;-47
2021/10/11 11:59:01;;;;;;;8.00;2.30;;;18.40;75.70;;;;;;10495909;28;20081;-48
2021/10/11 12:04:06;;;;;;;12.18;2.28;;;18.30;75.40;;;;;;10495822;28;20368;-50
2021/10/11 12:09:09;;;;;;;5.63;1.45;;;18.30;75.50;;;;;;10495703;28;20107;-52
2021/10/11 12:14:09;;;;;;;6.80;1.63;;;18.30;75.40;;;;;;10490640;28;20036;-49
2021/10/11 12:19:10;;;;;;;9.98;2.50;;;18.30;75.40;;;;;;10495547;28;20086;-50
2021/10/11 12:24:18;;;;;;;17.52;2.70;;;18.30;75.40;;;;;;10496066;28;20028;-52
2021/10/11 12:29:20;;;;;;;27.05;3.53;;;18.40;75.00;;;;;;10495583;28;20065;-46
2021/10/11 12:34:33;;;;;;;19.60;3.58;;;18.40;75.40;;;;;;10494829;28;20127;-50
2021/10/11 12:39:37;;;;;;;15.32;2.88;;;18.50;75.30;;;;;;10493422;28;20031;-53
2021/10/11 12:44:45;;;;;;;13.13;2.70;;;18.50;75.30;;;;;;10493949;28;20839;-47
2021/10/11 12:49:52;;;;;;;13.32;2.90;;;18.50;75.60;;;;;;10493899;28;20052;-52
2021/10/11 12:55:02;;;;;;;19.08;2.85;;;18.50;75.30;;;;;;10494417;28;20365;-50
2021/10/11 13:00:07;;;;;;;18.13;3.13;;;18.50;75.40;;;;;;10500833;28;20150;-51
2021/10/11 13:05:10;;;;;;;21.63;3.47;;;18.50;75.80;;;;;;10502026;28;20447;-53
2021/10/11 13:10:13;;;;;;;21.05;3.22;;;18.50;76.00;;;;;;10502203;28;20035;-53
2021/10/11 13:15:13;;;;;;;15.82;3.15;;;18.60;76.20;;;;;;10502306;28;20033;-53
2021/10/11 13:20:14;;;;;;;15.18;2.35;;;18.60;76.50;;;;;;10502142;28;20038;-54
2021/10/11 13:25:15;;;;;;;14.63;2.95;;;18.60;76.30;;;;;;10501865;28;20432;-50
2021/10/11 14:28:28;;;;;;;8.93;3.13;;;18.40;75.00;;;;;;10497998;28;20048;-53
2021/10/11 16:14:57;;;;;;;10.20;3.17;;;18.40;71.00;;;;;;10488957;28;20040;-45
2021/10/11 16:19:59;;;;;;;10.13;3.40;;;18.20;71.70;;;;;;10494576;28;20062;-49
2021/10/11 16:25:00;;;;;;;8.93;3.75;;;18.20;71.80;;;;;;10495077;28;20111;-49
2021/10/11 16:30:01;;;;;;;10.30;4.03;;;18.10;71.90;;;;;;10495312;28;20107;-49
2021/10/11 16:35:03;;;;;;;7.03;2.30;;;18.10;72.10;;;;;;10501328;28;20036;-50
2021/10/11 16:40:06;;;;;;;10.02;3.15;;;18.10;72.30;;;;;;10502582;28;20373;-47
2021/10/11 16:45:07;;;;;;;12.38;3.20;;;18.00;72.30;;;;;;10515024;28;20032;-50
2021/10/11 16:50:08;;;;;;;19.85;3.65;;;18.10;72.30;;;;;;10518925;28;20064;-50
2021/10/11 16:55:11;;;;;;;12.23;3.75;;;18.10;72.30;;;;;;10527308;28;20074;-47
2021/10/11 17:00:14;;;;;;;14.35;3.42;;;18.10;72.20;;;;;;10506069;28;20040;-50
2021/10/11 17:05:18;;;;;;;17.08;3.22;;;18.10;72.30;;;;;;10502173;28;20488;-51
2021/10/11 17:10:20;;;;;;;9.10;2.80;;;18.00;72.40;;;;;;10513274;28;20060;-44
2021/10/11 17:15:22;;;;;;;17.10;3.00;;;18.00;72.50;;;;;;10509005;28;20032;-47
2021/10/11 17:20:22;;;;;;;9.85;3.03;;;18.00;72.50;;;;;;10507486;28;20048;-52
2021/10/11 17:25:23;;;;;;;15.18;2.97;;;18.20;71.80;;;;;;10515745;28;20360;-45
2021/10/11 17:30:24;;;;;;;19.77;4.03;;;18.40;72.00;;;;;;10503595;28;20111;-46
2021/10/11 17:35:27;;;;;;;14.98;3.10;;;18.30;72.10;;;;;;10500381;28;20041;-45
2021/10/11 17:40:28;;;;;;;21.52;3.28;;;18.10;72.30;;;;;;10497680;28;20036;-47
2021/10/11 17:46:40;;;;;;;13.00;3.90;;;18.20;72.80;;;;;;10497508;28;20025;-48
2021/10/11 17:51:41;;;;;;;7.32;2.80;;;18.20;73.30;;;;;;10500398;28;20029;-47
2021/10/11 17:56:42;;;;;;;8.45;2.38;;;18.20;73.20;;;;;;10493325;28;20040;-50
2021/10/11 18:01:42;;;;;;;9.20;2.47;;;18.20;73.20;;;;;;10497927;28;20095;-49
2021/10/11 18:06:43;;;;;;;11.73;3.30;;;18.20;73.20;;;;;;10501094;28;20037;-47
2021/10/11 18:11:44;;;;;;;13.80;2.85;;;18.20;73.10;;;;;;10496621;28;20071;-47
2021/10/11 18:16:45;;;;;;;11.45;2.90;;;18.20;73.20;;;;;;10483683;28;20103;-47
2021/10/11 18:21:46;;;;;;;8.75;2.75;;;18.20;73.10;;;;;;10499797;28;20074;-48
2021/10/11 18:26:47;;;;;;;12.80;2.70;;;18.20;73.20;;;;;;10499590;28;20089;-47
2021/10/11 18:31:47;;;;;;;8.88;2.95;;;18.20;73.20;;;;;;10498996;28;20399;-46
2021/10/11 18:36:48;;;;;;;6.93;2.42;;;18.20;73.20;;;;;;10497500;28;20040;-46
2021/10/11 18:41:49;;;;;;;8.77;2.70;;;18.20;73.30;;;;;;10497853;28;20025;-47
2021/10/11 18:46:50;;;;;;;6.50;2.70;;;18.20;73.30;;;;;;10499096;28;20032;-46
2021/10/11 18:51:51;;;;;;;7.90;2.17;;;18.20;73.30;;;;;;10502964;28;20036;-46
2021/10/11 18:56:52;;;;;;;7.25;2.35;;;18.20;73.30;;;;;;10498115;28;20033;-46
2021/10/11 19:01:55;;;;;;;7.97;3.08;;;18.20;73.50;;;;;;10495628;28;20413;-46
2021/10/11 19:06:56;;;;;;;6.55;2.38;;;18.20;73.40;;;;;;10496664;28;20568;-48
2021/10/11 19:11:58;;;;;;;7.25;2.60;;;18.20;73.60;;;;;;10498075;28;20112;-47
2021/10/11 19:17:00;;;;;;;7.95;1.92;;;18.20;73.70;;;;;;10497860;28;20031;-48
2021/10/11 19:22:01;;;;;;;9.68;2.03;;;18.20;73.80;;;;;;10497729;28;20029;-47
2021/10/11 19:27:05;;;;;;;6.30;2.28;;;18.20;73.50;;;;;;10494472;28;20064;-48
2021/10/11 19:32:06;;;;;;;4.28;1.92;;;18.20;73.70;;;;;;10495968;28;20085;-48
2021/10/11 19:37:06;;;;;;;3.60;1.67;;;18.20;73.70;;;;;;10495324;28;20094;-49
2021/10/11 19:42:09;;;;;;;7.53;2.85;;;18.20;73.90;;;;;;10483716;28;20471;-46
2021/10/11 19:47:09;;;;;;;5.88;2.00;;;18.30;73.60;;;;;;10496798;28;20040;-49
2021/10/11 19:52:10;;;;;;;7.03;2.38;;;18.20;73.60;;;;;;10495254;28;20523;-44
2021/10/11 19:57:11;;;;;;;4.30;2.08;;;18.20;73.70;;;;;;10494454;28;20099;-49
2021/10/11 20:02:12;;;;;;;4.28;2.13;;;18.20;73.80;;;;;;10497015;28;20111;-50
2021/10/11 20:07:12;;;;;;;5.35;2.22;;;18.20;73.80;;;;;;10497692;28;20102;-47
2021/10/11 20:12:13;;;;;;;4.70;2.58;;;18.20;73.90;;;;;;10496806;28;20047;-45
2021/10/11 20:17:14;;;;;;;5.35;2.50;;;18.20;73.90;;;;;;10499821;28;20025;-50
2021/10/11 20:22:15;;;;;;;3.42;1.70;;;18.20;73.90;;;;;;10518578;28;20020;-45
2021/10/11 20:27:16;;;;;;;5.90;2.35;;;18.20;74.00;;;;;;10498789;28;20071;-45
2021/10/11 20:32:16;;;;;;;6.22;2.72;;;18.20;74.00;;;;;;10500621;28;20071;-44
2021/10/11 20:37:17;;;;;;;5.72;2.38;;;18.20;74.20;;;;;;10500120;28;20040;-46
2021/10/11 20:42:18;;;;;;;7.03;2.70;;;18.20;74.00;;;;;;10503462;28;20017;-45
2021/10/11 20:47:20;;;;;;;4.38;2.15;;;18.20;74.00;;;;;;10503075;28;20040;-47
2021/10/11 20:52:20;;;;;;;8.25;2.53;;;18.10;74.10;;;;;;10502273;28;20033;-47
2021/10/11 20:57:23;;;;;;;2.88;1.98;;;18.00;74.00;;;;;;10500168;28;20385;-46
2021/10/11 21:02:23;;;;;;;3.33;1.70;;;18.00;74.00;;;;;;10496860;28;20500;-46
2021/10/11 21:07:24;;;;;;;4.57;2.10;;;17.90;74.50;;;;;;10496789;28;20104;-50
2021/10/11 21:12:25;;;;;;;6.88;2.28;;;17.90;73.90;;;;;;10499285;28;20067;-47
2021/10/11 21:17:25;;;;;;;6.35;2.15;;;17.90;74.00;;;;;;10497280;28;20488;-45
2021/10/11 21:22:26;;;;;;;5.28;1.83;;;17.90;74.00;;;;;;10497451;28;20037;-46
2021/10/11 21:27:27;;;;;;;4.15;1.92;;;17.80;74.00;;;;;;10493585;28;20393;-47
2021/10/11 21:32:28;;;;;;;5.07;1.85;;;17.80;73.90;;;;;;10497823;28;20040;-45
2021/10/11 21:37:29;;;;;;;6.32;2.03;;;17.80;73.80;;;;;;10501455;28;20103;-46
2021/10/11 21:42:30;;;;;;;4.38;1.90;;;17.80;73.80;;;;;;10500126;28;20895;-45
2021/10/11 21:47:30;;;;;;;6.18;2.20;;;17.80;73.80;;;;;;10489136;28;20043;-45
2021/10/11 21:52:31;;;;;;;3.35;1.70;;;17.80;73.80;;;;;;10501578;28;20028;-47
2021/10/11 21:57:32;;;;;;;3.30;1.50;;;17.80;73.80;;;;;;10494629;28;20119;-46
2021/10/11 22:02:33;;;;;;;3.38;2.00;;;17.80;73.80;;;;;;10497890;28;20131;-45
2021/10/11 22:07:34;;;;;;;4.78;2.10;;;17.80;73.80;;;;;;10496358;28;20032;-46
2021/10/11 22:12:34;;;;;;;4.18;1.63;;;17.70;73.70;;;;;;10488466;28;20071;-47
2021/10/11 22:17:35;;;;;;;4.20;1.70;;;17.70;73.70;;;;;;10497447;28;20456;-46
2021/10/11 22:22:36;;;;;;;4.05;1.80;;;17.70;73.70;;;;;;10499988;28;20032;-46
2021/10/11 22:27:36;;;;;;;5.15;1.48;;;17.70;73.60;;;;;;10499708;28;20476;-45
2021/10/11 22:32:37;;;;;;;5.28;2.10;;;17.70;73.50;;;;;;10514409;28;20070;-46
2021/10/11 22:37:38;;;;;;;2.72;1.60;;;17.70;73.50;;;;;;10481121;28;20623;-45
2021/10/11 22:42:39;;;;;;;2.63;1.27;;;17.70;73.60;;;;;;10498896;28;20625;-46
2021/10/11 22:47:40;;;;;;;2.92;1.40;;;17.70;73.60;;;;;;10498757;28;20048;-45
2021/10/11 22:52:47;;;;;;;4.55;1.80;;;17.70;73.60;;;;;;10497589;28;20373;-45
2021/10/11 22:57:49;;;;;;;2.65;1.23;;;17.60;73.50;;;;;;10498300;28;20040;-48
2021/10/11 23:02:50;;;;;;;5.18;1.75;;;17.70;73.60;;;;;;10498229;28;20032;-46
2021/10/11 23:07:51;;;;;;;3.83;1.42;;;17.60;73.50;;;;;;10496567;28;20036;-45
2021/10/11 23:12:52;;;;;;;1.77;1.15;;;17.60;73.50;;;;;;10498066;28;20112;-48
2021/10/11 23:17:53;;;;;;;3.60;1.77;;;17.60;73.50;;;;;;10497744;28;20037;-48
2021/10/11 23:22:55;;;;;;;4.18;1.25;;;17.60;73.50;;;;;;10497597;28;20024;-47
2021/10/11 23:27:55;;;;;;;2.95;1.63;;;17.60;73.50;;;;;;10497673;28;20400;-45
2021/10/11 23:32:56;;;;;;;5.97;1.70;;;17.60;73.40;;;;;;10497559;28;20071;-46
2021/10/11 23:37:57;;;;;;;2.80;1.45;;;17.60;73.30;;;;;;10496161;28;20059;-46
2021/10/11 23:42:58;;;;;;;2.85;1.20;;;17.60;73.40;;;;;;10496522;28;20457;-45
2021/10/11 23:47:58;;;;;;;2.42;1.27;;;17.60;73.40;;;;;;10497318;28;20552;-45
2021/10/11 23:53:00;;;;;;;4.22;1.60;;;17.60;73.40;;;;;;10502046;28;20627;-45
2021/10/11 23:58:00;;;;;;;2.10;1.23;;;17.50;73.40;;;;;;10495792;28;20035;-46
